createdAt,value
2019-06-10T00:02:30.895Z,16.80
2019-06-10T00:05:35.893Z,16.78
2019-06-10T00:08:41.207Z,16.72
2019-06-10T00:11:45.782Z,16.67
2019-06-10T00:14:50.963Z,16.65
2019-06-10T00:18:16.186Z,16.55
2019-06-10T00:21:03.639Z,16.46
2019-06-10T00:24:08.596Z,16.48
2019-06-10T00:27:13.053Z,16.42
2019-06-10T00:30:17.775Z,16.38
2019-06-10T00:33:22.212Z,16.39
2019-06-10T00:36:26.662Z,16.28
2019-06-10T00:39:31.327Z,16.23
2019-06-10T00:42:35.751Z,16.28
2019-06-10T00:45:41.018Z,16.42
2019-06-10T00:48:45.746Z,16.48
2019-06-10T00:51:51.094Z,16.58
2019-06-10T00:54:55.571Z,16.58
2019-06-10T00:58:01.434Z,16.57
2019-06-10T01:01:07.957Z,16.60
2019-06-10T01:04:16.235Z,16.60
2019-06-10T01:07:18.695Z,16.53
2019-06-10T01:10:23.218Z,16.58
2019-06-10T01:13:27.676Z,16.44
2019-06-10T01:16:32.382Z,16.53
2019-06-10T01:19:36.825Z,16.61
2019-06-10T01:22:41.278Z,16.61
2019-06-10T01:25:45.738Z,16.58
2019-06-10T01:28:51.649Z,16.45
2019-06-10T01:31:56.321Z,16.57
2019-06-10T01:35:01.247Z,16.62
2019-06-10T01:38:06.216Z,16.51
2019-06-10T01:41:12.370Z,16.41
2019-06-10T01:44:17.713Z,16.18
2019-06-10T01:47:22.292Z,16.09
2019-06-10T01:50:26.756Z,16.25
2019-06-10T01:53:31.567Z,16.14
2019-06-10T01:56:36.317Z,15.90
2019-06-10T01:59:41.320Z,15.68
2019-06-10T02:02:45.915Z,15.69
2019-06-10T02:05:51.625Z,15.83
2019-06-10T02:09:09.627Z,16.02
2019-06-10T02:12:17.571Z,16.12
2019-06-10T02:15:22.622Z,16.14
2019-06-10T02:18:27.402Z,16.11
2019-06-10T02:21:31.854Z,16.10
2019-06-10T02:24:36.288Z,16.16
2019-06-10T02:27:41.551Z,16.26
2019-06-10T02:30:51.936Z,16.29
2019-06-10T02:33:52.760Z,16.25
2019-06-10T02:36:57.859Z,16.31
2019-06-10T02:40:04.515Z,16.19
2019-06-10T02:43:14.249Z,16.28
2019-06-10T02:46:19.990Z,16.28
2019-06-10T02:49:42.342Z,16.25
2019-06-10T02:52:32.626Z,16.17
2019-06-10T02:55:35.326Z,15.97
2019-06-10T02:58:43.987Z,15.88
2019-06-10T03:01:46.209Z,15.84
2019-06-10T03:04:53.432Z,16.04
2019-06-10T03:07:56.889Z,16.18
2019-06-10T03:11:03.820Z,16.12
2019-06-10T03:14:07.511Z,16.17
2019-06-10T03:17:13.967Z,16.33
2019-06-10T03:20:18.412Z,16.21
2019-06-10T03:23:25.136Z,16.28
2019-06-10T03:26:29.038Z,16.38
2019-06-10T03:29:33.495Z,16.28
2019-06-10T03:32:42.635Z,16.08
2019-06-10T03:35:44.269Z,15.90
2019-06-10T03:38:49.018Z,15.90
2019-06-10T03:41:53.463Z,16.00
2019-06-10T03:44:57.925Z,16.07
2019-06-10T03:48:03.741Z,16.17
2019-06-10T03:51:08.559Z,16.13
2019-06-10T03:54:13.315Z,16.14
2019-06-10T03:57:19.120Z,16.15
2019-06-10T04:00:25.603Z,16.01
2019-06-10T04:03:30.244Z,16.04
2019-06-10T04:06:34.759Z,16.00
2019-06-10T04:09:39.199Z,16.00
2019-06-10T04:12:43.659Z,16.00
2019-06-10T04:15:48.105Z,15.93
2019-06-10T04:18:53.423Z,15.83
2019-06-10T04:21:58.348Z,15.77
2019-06-10T04:25:03.193Z,15.82
2019-06-10T04:28:07.738Z,15.75
2019-06-10T04:31:13.269Z,15.66
2019-06-10T04:34:18.348Z,15.75
2019-06-10T04:37:23.450Z,15.84
2019-06-10T04:40:29.348Z,15.83
2019-06-10T04:43:34.003Z,15.82
2019-06-10T04:46:38.452Z,15.94
2019-06-10T04:49:42.991Z,15.80
2019-06-10T04:52:47.673Z,16.03
2019-06-10T04:55:52.356Z,16.06
2019-06-10T04:58:56.852Z,15.96
2019-06-10T05:02:02.467Z,15.89
2019-06-10T05:05:08.234Z,15.93
2019-06-10T05:08:13.198Z,15.98
2019-06-10T05:11:19.030Z,16.09
2019-06-10T05:14:25.331Z,16.18
2019-06-10T05:17:31.778Z,16.28
2019-06-10T05:20:51.076Z,16.36
2019-06-10T05:23:43.073Z,16.41
2019-06-10T05:26:47.717Z,16.44
2019-06-10T05:29:52.699Z,16.57
2019-06-10T05:32:57.276Z,16.59
2019-06-10T05:36:02.651Z,16.60
2019-06-10T05:39:08.381Z,16.66
2019-06-10T05:42:12.900Z,16.72
2019-06-10T05:45:17.660Z,16.78
2019-06-10T05:48:22.737Z,16.85
2019-06-10T05:51:29.039Z,16.95
2019-06-10T05:54:35.294Z,16.89
2019-06-10T05:57:39.754Z,16.82
2019-06-10T06:00:44.851Z,16.81
2019-06-10T06:03:49.303Z,16.92
2019-06-10T06:06:53.762Z,16.96
2019-06-10T06:09:58.219Z,17.09
2019-06-10T06:13:03.124Z,17.02
2019-06-10T06:16:07.897Z,17.05
2019-06-10T06:19:12.745Z,17.05
2019-06-10T06:22:17.327Z,17.02
2019-06-10T06:25:24.060Z,17.06
2019-06-10T06:28:28.038Z,17.06
2019-06-10T06:31:33.422Z,17.08
2019-06-10T06:34:38.960Z,17.22
2019-06-10T06:37:43.405Z,17.29
2019-06-10T06:40:47.880Z,17.40
2019-06-10T06:43:53.122Z,17.48
2019-06-10T06:46:57.825Z,17.62
2019-06-10T06:50:02.823Z,17.68
2019-06-10T06:53:21.317Z,17.77
2019-06-10T06:56:13.543Z,17.66
2019-06-10T06:59:17.998Z,17.71
2019-06-10T07:02:22.873Z,17.80
2019-06-10T07:05:27.298Z,17.88
2019-06-10T07:08:36.159Z,17.90
2019-06-10T07:11:45.027Z,17.96
2019-06-10T07:14:52.698Z,18.09
2019-06-10T07:17:57.168Z,18.40
2019-06-10T07:21:02.651Z,18.65
2019-06-10T07:24:07.253Z,18.95
2019-06-10T07:27:13.085Z,18.91
2019-06-10T07:30:18.479Z,19.07
2019-06-10T07:33:22.997Z,19.40
2019-06-10T07:36:27.455Z,19.57
2019-06-10T07:39:34.667Z,19.76
2019-06-10T07:42:39.014Z,19.78
2019-06-10T07:45:47.388Z,19.78
2019-06-10T07:48:53.527Z,19.67
2019-06-10T07:52:11.826Z,19.57
2019-06-10T07:55:02.568Z,19.39
2019-06-10T07:58:07.053Z,19.33
2019-06-10T08:01:13.163Z,19.23
2019-06-10T08:04:17.906Z,19.23
2019-06-10T08:07:22.581Z,19.14
2019-06-10T08:10:27.178Z,18.97
2019-06-10T08:13:32.293Z,19.01
2019-06-10T08:16:37.857Z,19.02
2019-06-10T08:19:48.691Z,19.05
2019-06-10T08:22:54.029Z,19.03
2019-06-10T08:25:57.755Z,18.75
2019-06-10T08:29:04.179Z,18.77
2019-06-10T08:32:07.059Z,18.90
2019-06-10T08:35:12.886Z,19.13
2019-06-10T08:38:17.439Z,19.31
2019-06-10T08:41:23.072Z,19.48
2019-06-10T08:44:27.811Z,19.36
2019-06-10T08:47:32.710Z,19.41
2019-06-10T08:50:37.592Z,19.43
2019-06-10T08:53:46.250Z,19.16
2019-06-10T08:56:50.920Z,19.14
2019-06-10T08:59:55.018Z,18.97
2019-06-10T09:02:59.477Z,18.81
2019-06-10T09:06:03.931Z,18.78
2019-06-10T09:09:08.811Z,18.77
2019-06-10T09:12:28.599Z,18.87
2019-06-10T09:15:19.860Z,18.99
2019-06-10T09:18:24.310Z,18.70
2019-06-10T09:21:28.763Z,18.74
2019-06-10T09:24:33.227Z,18.49
2019-06-10T09:27:37.737Z,18.49
2019-06-10T09:30:47.599Z,18.64
2019-06-10T09:33:53.383Z,18.78
2019-06-10T09:36:56.925Z,19.30
2019-06-10T09:40:03.430Z,19.60
2019-06-10T09:43:08.062Z,20.15
2019-06-10T09:46:12.757Z,20.69
2019-06-10T09:49:17.690Z,20.67
2019-06-10T09:52:24.031Z,20.53
2019-06-10T09:55:32.905Z,20.41
2019-06-10T09:58:37.701Z,20.18
2019-06-10T10:01:47.291Z,20.04
2019-06-10T10:04:52.566Z,20.14
2019-06-10T10:07:57.318Z,20.19
2019-06-10T10:11:00.989Z,20.19
2019-06-10T10:14:10.387Z,20.35
2019-06-10T10:17:13.735Z,20.45
2019-06-10T10:20:18.318Z,20.64
2019-06-10T10:23:23.079Z,20.94
2019-06-10T10:26:27.536Z,21.22
2019-06-10T10:29:32.850Z,21.49
2019-06-10T10:32:37.405Z,21.89
2019-06-10T10:35:43.136Z,22.18
2019-06-10T10:38:48.912Z,22.34
2019-06-10T10:41:56.809Z,22.42
2019-06-10T10:44:59.695Z,22.47
2019-06-10T10:48:04.147Z,22.52
2019-06-10T10:51:08.935Z,22.94
2019-06-10T10:54:28.708Z,23.21
2019-06-10T10:57:19.568Z,23.10
2019-06-10T11:00:25.354Z,23.22
2019-06-10T11:03:29.806Z,23.41
2019-06-10T11:06:34.244Z,23.61
2019-06-10T11:09:38.703Z,23.65
2019-06-10T11:12:46.985Z,23.62
2019-06-10T11:15:54.915Z,23.43
2019-06-10T11:18:58.084Z,23.18
2019-06-10T11:22:03.100Z,22.79
2019-06-10T11:25:07.788Z,22.35
2019-06-10T11:28:13.011Z,22.19
2019-06-10T11:31:17.460Z,21.98
2019-06-10T11:34:21.910Z,21.85
2019-06-10T11:37:26.364Z,21.66
2019-06-10T11:40:31.615Z,21.45
2019-06-10T11:43:36.997Z,21.42
2019-06-10T11:46:43.055Z,21.33
2019-06-10T11:49:48.946Z,21.31
2019-06-10T11:52:57.086Z,21.21
2019-06-10T11:56:02.227Z,21.19
2019-06-10T11:59:09.585Z,21.15
2019-06-10T12:02:13.313Z,21.11
2019-06-10T12:05:20.514Z,21.10
2019-06-10T12:08:25.173Z,21.00
2019-06-10T12:11:29.634Z,21.04
2019-06-10T12:14:34.070Z,20.93
2019-06-10T12:17:49.882Z,20.81
2019-06-10T12:20:44.700Z,20.74
2019-06-10T12:23:49.722Z,20.78
2019-06-10T12:26:57.935Z,20.82
2019-06-10T12:30:04.700Z,20.85
2019-06-10T12:33:06.635Z,20.88
2019-06-10T12:36:12.883Z,21.07
2019-06-10T12:39:17.584Z,21.25
2019-06-10T12:42:22.563Z,21.37
2019-06-10T12:45:27.122Z,21.45
2019-06-10T12:48:34.098Z,21.47
2019-06-10T12:51:38.070Z,21.47
2019-06-10T12:54:42.559Z,21.35
2019-06-10T12:57:47.000Z,21.29
2019-06-10T13:00:53.277Z,21.17
2019-06-10T13:03:57.686Z,21.00
2019-06-10T13:07:05.751Z,21.06
2019-06-10T13:10:12.129Z,21.16
2019-06-10T13:13:16.265Z,20.89
2019-06-10T13:16:20.712Z,20.84
2019-06-10T13:19:25.184Z,20.68
2019-06-10T13:22:29.611Z,20.56
2019-06-10T13:25:34.301Z,20.37
2019-06-10T13:28:38.738Z,20.31
2019-06-10T13:31:43.721Z,20.17
2019-06-10T13:34:48.275Z,20.03
2019-06-10T13:37:52.898Z,19.97
2019-06-10T13:40:57.936Z,19.85
2019-06-10T13:44:04.107Z,19.76
2019-06-10T13:47:11.842Z,19.46
2019-06-10T13:50:18.631Z,19.35
2019-06-10T13:53:21.959Z,19.18
2019-06-10T13:56:43.205Z,19.13
2019-06-10T13:59:32.581Z,19.07
2019-06-10T14:02:37.022Z,19.00
2019-06-10T14:05:44.830Z,18.87
2019-06-10T14:08:47.976Z,18.80
2019-06-10T14:11:52.423Z,18.79
2019-06-10T14:14:56.871Z,18.71
2019-06-10T14:18:03.881Z,18.70
2019-06-10T14:21:11.095Z,18.68
2019-06-10T14:24:16.181Z,18.71
2019-06-10T14:27:21.607Z,18.63
2019-06-10T14:30:26.613Z,18.60
2019-06-10T14:33:32.982Z,18.69
2019-06-10T14:36:37.246Z,18.58
2019-06-10T14:39:42.249Z,18.54
2019-06-10T14:42:46.915Z,18.56
2019-06-10T14:45:53.513Z,18.51
2019-06-10T14:48:57.554Z,18.57
2019-06-10T14:52:02.816Z,18.59
2019-06-10T14:55:09.336Z,18.66
2019-06-10T14:58:17.106Z,18.73
2019-06-10T15:01:25.471Z,18.70
2019-06-10T15:04:27.246Z,18.63
2019-06-10T15:07:33.034Z,18.69
2019-06-10T15:10:37.526Z,18.75
2019-06-10T15:13:43.478Z,18.77
2019-06-10T15:16:48.043Z,18.80
2019-06-10T15:19:53.036Z,18.66
2019-06-10T15:22:57.607Z,18.64
2019-06-10T15:26:02.793Z,18.74
2019-06-10T15:29:07.495Z,18.67
2019-06-10T15:32:24.957Z,18.72
2019-06-10T15:35:21.193Z,18.80
2019-06-10T15:38:24.496Z,18.81
2019-06-10T15:41:28.932Z,18.77
2019-06-10T15:44:48.793Z,18.72
2019-06-10T15:47:39.560Z,18.77
2019-06-10T15:50:44.008Z,18.66
2019-06-10T15:53:48.448Z,18.65
2019-06-10T15:56:56.510Z,18.66
2019-06-10T15:59:59.140Z,18.70
2019-06-10T16:03:03.667Z,18.71
2019-06-10T16:06:08.113Z,18.70
2019-06-10T16:09:14.214Z,18.76
2019-06-10T16:12:19.978Z,18.73
2019-06-10T16:15:26.637Z,18.62
2019-06-10T16:18:32.898Z,18.57
2019-06-10T16:21:37.677Z,18.50
2019-06-10T16:24:42.333Z,18.52
2019-06-10T16:27:50.896Z,18.54
2019-06-10T16:30:53.875Z,18.53
2019-06-10T16:33:58.625Z,18.54
2019-06-10T16:37:03.086Z,18.51
2019-06-10T16:40:08.648Z,18.53
2019-06-10T16:43:13.079Z,18.56
2019-06-10T16:46:18.242Z,18.60
2019-06-10T16:49:23.528Z,18.59
2019-06-10T16:52:28.033Z,18.60
2019-06-10T16:55:33.234Z,18.52
2019-06-10T16:58:37.929Z,18.51
2019-06-10T17:01:42.874Z,18.55
2019-06-10T17:04:47.481Z,18.57
2019-06-10T17:07:52.610Z,18.61
2019-06-10T17:10:57.260Z,18.56
2019-06-10T17:14:03.126Z,18.53
2019-06-10T17:17:07.731Z,18.55
2019-06-10T17:20:13.142Z,18.54
2019-06-10T17:23:25.653Z,18.55
2019-06-10T17:26:30.665Z,18.29
2019-06-10T17:29:33.609Z,18.04
2019-06-10T17:32:38.105Z,17.99
2019-06-10T17:35:43.211Z,18.13
2019-06-10T17:38:47.749Z,18.15
2019-06-10T17:41:52.207Z,18.17
2019-06-10T17:44:56.836Z,18.18
2019-06-10T17:48:03.107Z,18.20
2019-06-10T17:51:07.564Z,18.22
2019-06-10T17:54:12.953Z,18.22
2019-06-10T17:57:17.592Z,17.95
2019-06-10T18:00:24.339Z,17.80
2019-06-10T18:03:29.335Z,17.75
2019-06-10T18:06:36.043Z,17.74
2019-06-10T18:09:40.077Z,17.71
2019-06-10T18:12:44.513Z,17.43
2019-06-10T18:15:48.965Z,17.51
2019-06-10T18:18:53.433Z,17.59
2019-06-10T18:21:57.874Z,17.70
2019-06-10T18:25:03.048Z,17.80
2019-06-10T18:28:07.625Z,17.74
2019-06-10T18:31:12.082Z,17.66
2019-06-10T18:34:16.794Z,17.68
2019-06-10T18:37:22.784Z,17.70
2019-06-10T18:40:27.542Z,17.74
2019-06-10T18:43:33.749Z,17.73
2019-06-10T18:46:38.172Z,17.73
2019-06-10T18:49:43.280Z,17.71
2019-06-10T18:52:48.270Z,17.65
2019-06-10T18:55:55.020Z,17.72
2019-06-10T18:59:13.446Z,17.65
2019-06-10T19:02:06.457Z,17.49
2019-06-10T19:05:13.159Z,17.46
2019-06-10T19:08:17.717Z,17.61
2019-06-10T19:11:22.175Z,17.64
2019-06-10T19:14:26.616Z,17.57
2019-06-10T19:17:34.872Z,17.61
2019-06-10T19:20:39.192Z,17.61
2019-06-10T19:23:44.123Z,17.55
2019-06-10T19:26:48.788Z,17.55
2019-06-10T19:29:54.785Z,17.62
2019-06-10T19:32:59.410Z,17.59
2019-06-10T19:36:03.857Z,17.55
2019-06-10T19:39:08.768Z,17.51
2019-06-10T19:42:13.222Z,17.54
2019-06-10T19:45:18.747Z,17.57
2019-06-10T19:48:23.196Z,17.54
2019-06-10T19:51:27.655Z,17.55
2019-06-10T19:54:33.467Z,17.49
2019-06-10T19:57:39.467Z,17.50
2019-06-10T20:00:50.887Z,17.56
2019-06-10T20:03:52.076Z,17.59
2019-06-10T20:06:56.427Z,17.63
2019-06-10T20:10:02.853Z,17.70
2019-06-10T20:13:07.820Z,17.59
2019-06-10T20:16:12.285Z,17.63
2019-06-10T20:19:16.738Z,17.66
2019-06-10T20:22:22.842Z,17.69
2019-06-10T20:25:27.783Z,17.64
2019-06-10T20:28:32.304Z,17.66
2019-06-10T20:31:37.687Z,17.67
2019-06-10T20:34:43.309Z,17.67
2019-06-10T20:37:47.816Z,17.67
2019-06-10T20:40:53.137Z,17.75
2019-06-10T20:43:57.686Z,17.70
2019-06-10T20:47:02.197Z,17.61
2019-06-10T20:50:09.125Z,17.58
2019-06-10T20:53:18.307Z,17.55
2019-06-10T20:56:20.416Z,17.56
2019-06-10T20:59:26.409Z,17.54
2019-06-10T21:02:32.547Z,17.57
2019-06-10T21:05:37.206Z,17.57
2019-06-10T21:08:47.704Z,17.57
2019-06-10T21:11:50.150Z,17.61
2019-06-10T21:14:55.829Z,17.61
2019-06-10T21:18:00.292Z,17.58
2019-06-10T21:21:05.007Z,17.55
2019-06-10T21:24:09.462Z,17.60
2019-06-10T21:27:13.914Z,17.53
2019-06-10T21:30:18.354Z,17.58
2019-06-10T21:33:23.491Z,17.54
2019-06-10T21:36:28.041Z,17.49
2019-06-10T21:39:32.514Z,17.45
2019-06-10T21:42:36.983Z,17.33
2019-06-10T21:45:42.915Z,17.28
2019-06-10T21:48:48.973Z,17.27
2019-06-10T21:51:56.512Z,17.19
2019-06-10T21:55:00.030Z,17.24
2019-06-10T21:58:04.482Z,17.19
2019-06-10T22:01:13.405Z,17.16
2019-06-10T22:04:15.244Z,17.13
2019-06-10T22:07:19.701Z,17.12
2019-06-10T22:10:24.158Z,17.09
2019-06-10T22:13:28.620Z,17.03
2019-06-10T22:16:33.077Z,17.03
2019-06-10T22:19:37.527Z,17.06
2019-06-10T22:22:42.914Z,17.07
2019-06-10T22:25:48.745Z,17.04
2019-06-10T22:28:55.825Z,16.99
2019-06-10T22:31:59.414Z,17.08
2019-06-10T22:35:05.704Z,17.04
2019-06-10T22:38:10.168Z,17.02
2019-06-10T22:41:14.606Z,17.01
2019-06-10T22:44:19.056Z,17.01
2019-06-10T22:47:23.500Z,17.00
2019-06-10T22:50:28.246Z,17.00
2019-06-10T22:53:33.317Z,16.93
2019-06-10T22:56:37.915Z,17.04
2019-06-10T22:59:42.621Z,16.94
2019-06-10T23:02:47.796Z,16.81
2019-06-10T23:05:52.432Z,16.80
2019-06-10T23:08:58.112Z,16.78
2019-06-10T23:12:03.085Z,16.69
2019-06-10T23:15:09.283Z,16.69
2019-06-10T23:18:13.727Z,16.72
2019-06-10T23:21:18.182Z,16.69
2019-06-10T23:24:22.780Z,16.70
2019-06-10T23:27:27.358Z,16.71
2019-06-10T23:30:32.978Z,16.71
2019-06-10T23:33:37.532Z,16.68
2019-06-10T23:36:43.226Z,16.66
2019-06-10T23:39:47.729Z,16.72
2019-06-10T23:42:53.083Z,16.72
2019-06-10T23:45:57.811Z,16.82
2019-06-10T23:49:04.397Z,16.64
2019-06-10T23:52:08.424Z,16.67
2019-06-10T23:55:13.147Z,16.63
2019-06-10T23:58:21.869Z,16.52
